Impacts TAF Board
For situational awareness. Not to be used for flight planning purposes.
IDs:

KPHL - Philadelphia Intl, PA, US

Issued at 1722 UTC 01 Mar 2021
Updated at 1732 UTC 01 Mar 2021
Potential Impact None Slight Moderate High
Time1654Z 01/18Z 01/19Z 01/20Z 01/21Z 01/22Z 01/23Z 02/00Z 02/01Z 02/02Z 02/03Z 02/04Z 02/05Z 02/06Z>>
Type OBS PRVL PRVL PRVL PRVL PRVL PRVL PRVL PRVL PRVL PRVL PRVL PRVL PRVL
VIS 10 >6 >6 >6 >6 >6 >6 >6 >6 >6 >6 >6 >6 >6
CIG 35 40 40 40 40 40 40 40 -- -- -- -- -- --
Cover OVC BKN BKN BKN BKN BKN BKN BKN FEW FEW FEW FEW FEW FEW
FltCat VFR VFR VFR VFR VFR VFR VFR VFR VFR VFR VFR VFR VFR VFR
WX -- -- -- -- -- -- -- -- -- -- -- -- -- --
WDir 300 300 300 300 300 300 300 300 310 310 310 310 310 310
WSpd 7 12 12 12 12 12 12 12 23 23 23 23 23 23
WGst -- 25 25 25 25 25 25 25 39 39 39 39 39 39
Raw TAF
KPHL 011722Z 0118/0224 30012G25KT P6SM BKN040
  FM020100 31023G39KT P6SM FEW250
  FM021200 31014G28KT P6SM SKC
  FM021700 30012G22KT P6SM FEW250


Raw METAR
KPHL 011654Z 30007KT 10SM FEW011 BKN035 OVC100 08/06 A2971 RMK AO2 SLP060 T00830056
KPHL 011617Z 25009KT 10SM SCT011 OVC032 08/06 A2971 RMK AO2 T00780061
KPHL 011554Z 28008KT 7SM BKN008 OVC026 08/06 A2970 RMK AO2 SLP058 CIG 007V010 T00780061
KPHL 011534Z 30012KT 7SM OVC008 08/06 A2972 RMK AO2 PRESRR T00780061
KPHL 011512Z 26010KT 6SM BR BKN006 BKN070 08/07 A2968 RMK AO2 T00780067
KPHL 011454Z 23010KT 6SM BR SCT006 OVC100 07/06 A2966 RMK AO2 RAE22 SLP042 P0000 60001 T00720061 58020
KPHL 011445Z 22008KT 6SM BR FEW006 OVC100 07/06 A2966 RMK AO2 RAE22 P0000 T00720061

METAR Board
Radar Display
Forecast Discussion
For situational awareness. Not to be used for flight planning purposes.